sensor_id;sensor_type;location;lat;lon;timestamp;P1;durP1;ratioP1;P2;durP2;ratioP2
5171;SDS011;2605;49.770;9.868;2024-01-06T00:00:34;1.53;;;1.43;;
5171;SDS011;2605;49.770;9.868;2024-01-06T00:03:00;4.03;;;1.50;;
5171;SDS011;2605;49.770;9.868;2024-01-06T00:05:25;5.30;;;2.00;;
5171;SDS011;2605;49.770;9.868;2024-01-06T00:07:51;2.40;;;1.80;;
5171;SDS011;2605;49.770;9.868;2024-01-06T00:10:16;1.60;;;1.10;;
5171;SDS011;2605;49.770;9.868;2024-01-06T00:12:42;4.27;;;1.30;;
5171;SDS011;2605;49.770;9.868;2024-01-06T00:15:08;7.27;;;2.03;;
5171;SDS011;2605;49.770;9.868;2024-01-06T00:17:34;6.77;;;2.10;;
5171;SDS011;2605;49.770;9.868;2024-01-06T00:19:59;2.33;;;1.80;;
5171;SDS011;2605;49.770;9.868;2024-01-06T00:22:27;5.60;;;1.50;;
5171;SDS011;2605;49.770;9.868;2024-01-06T00:24:55;6.37;;;2.57;;
5171;SDS011;2605;49.770;9.868;2024-01-06T00:27:21;8.70;;;2.07;;
5171;SDS011;2605;49.770;9.868;2024-01-06T00:29:46;6.93;;;2.53;;
5171;SDS011;2605;49.770;9.868;2024-01-06T00:32:12;2.80;;;1.63;;
5171;SDS011;2605;49.770;9.868;2024-01-06T00:34:38;7.10;;;1.73;;
5171;SDS011;2605;49.770;9.868;2024-01-06T00:37:03;3.00;;;1.90;;
5171;SDS011;2605;49.770;9.868;2024-01-06T00:39:28;4.57;;;1.70;;
5171;SDS011;2605;49.770;9.868;2024-01-06T00:41:54;2.90;;;1.47;;
5171;SDS011;2605;49.770;9.868;2024-01-06T00:44:20;2.93;;;1.70;;
5171;SDS011;2605;49.770;9.868;2024-01-06T00:46:45;2.43;;;1.53;;
5171;SDS011;2605;49.770;9.868;2024-01-06T00:49:11;1.40;;;1.30;;
5171;SDS011;2605;49.770;9.868;2024-01-06T00:51:40;3.97;;;2.00;;
5171;SDS011;2605;49.770;9.868;2024-01-06T00:54:05;1.93;;;1.57;;
5171;SDS011;2605;49.770;9.868;2024-01-06T00:56:31;4.50;;;1.27;;
5171;SDS011;2605;49.770;9.868;2024-01-06T00:58:56;4.77;;;1.60;;
5171;SDS011;2605;49.770;9.868;2024-01-06T01:01:22;8.03;;;1.77;;
5171;SDS011;2605;49.770;9.868;2024-01-06T01:03:47;1.40;;;1.30;;
5171;SDS011;2605;49.770;9.868;2024-01-06T01:06:13;5.03;;;2.00;;
5171;SDS011;2605;49.770;9.868;2024-01-06T01:08:38;1.17;;;1.07;;
5171;SDS011;2605;49.770;9.868;2024-01-06T01:11:04;3.43;;;1.23;;
5171;SDS011;2605;49.770;9.868;2024-01-06T01:13:29;3.23;;;1.50;;
5171;SDS011;2605;49.770;9.868;2024-01-06T01:15:55;3.57;;;1.50;;
5171;SDS011;2605;49.770;9.868;2024-01-06T01:18:21;8.13;;;1.40;;
5171;SDS011;2605;49.770;9.868;2024-01-06T01:20:46;1.63;;;1.43;;
5171;SDS011;2605;49.770;9.868;2024-01-06T01:23:12;1.60;;;1.50;;
5171;SDS011;2605;49.770;9.868;2024-01-06T01:25:37;2.20;;;1.37;;
5171;SDS011;2605;49.770;9.868;2024-01-06T01:28:03;4.73;;;1.80;;
5171;SDS011;2605;49.770;9.868;2024-01-06T01:30:29;2.03;;;1.27;;
5171;SDS011;2605;49.770;9.868;2024-01-06T01:32:54;2.43;;;2.07;;
5171;SDS011;2605;49.770;9.868;2024-01-06T01:35:20;3.63;;;1.40;;
5171;SDS011;2605;49.770;9.868;2024-01-06T01:37:45;5.80;;;1.93;;
5171;SDS011;2605;49.770;9.868;2024-01-06T01:40:11;3.20;;;1.60;;
5171;SDS011;2605;49.770;9.868;2024-01-06T01:42:41;3.97;;;1.50;;
5171;SDS011;2605;49.770;9.868;2024-01-06T01:45:11;6.50;;;1.60;;
5171;SDS011;2605;49.770;9.868;2024-01-06T01:47:36;5.33;;;1.40;;
5171;SDS011;2605;49.770;9.868;2024-01-06T01:50:02;1.40;;;1.30;;
5171;SDS011;2605;49.770;9.868;2024-01-06T01:52:28;2.50;;;1.27;;
5171;SDS011;2605;49.770;9.868;2024-01-06T01:54:54;2.23;;;1.70;;
5171;SDS011;2605;49.770;9.868;2024-01-06T01:57:20;1.73;;;1.00;;
5171;SDS011;2605;49.770;9.868;2024-01-06T01:59:50;1.90;;;1.37;;
5171;SDS011;2605;49.770;9.868;2024-01-06T02:02:20;2.37;;;1.17;;
5171;SDS011;2605;49.770;9.868;2024-01-06T02:04:47;3.70;;;2.00;;
5171;SDS011;2605;49.770;9.868;2024-01-06T02:07:12;7.57;;;1.90;;
5171;SDS011;2605;49.770;9.868;2024-01-06T02:09:38;3.40;;;1.53;;
5171;SDS011;2605;49.770;9.868;2024-01-06T02:12:04;5.07;;;1.87;;
5171;SDS011;2605;49.770;9.868;2024-01-06T02:14:29;5.33;;;1.90;;
5171;SDS011;2605;49.770;9.868;2024-01-06T02:16:57;11.70;;;2.30;;
5171;SDS011;2605;49.770;9.868;2024-01-06T02:19:23;2.03;;;1.83;;
5171;SDS011;2605;49.770;9.868;2024-01-06T02:21:52;2.53;;;1.50;;
5171;SDS011;2605;49.770;9.868;2024-01-06T02:24:18;7.53;;;2.67;;
5171;SDS011;2605;49.770;9.868;2024-01-06T02:26:44;8.63;;;2.40;;
5171;SDS011;2605;49.770;9.868;2024-01-06T02:29:10;2.93;;;2.20;;
5171;SDS011;2605;49.770;9.868;2024-01-06T02:31:35;5.10;;;2.53;;
5171;SDS011;2605;49.770;9.868;2024-01-06T02:34:01;2.67;;;2.00;;
5171;SDS011;2605;49.770;9.868;2024-01-06T02:36:26;4.00;;;2.20;;
5171;SDS011;2605;49.770;9.868;2024-01-06T02:38:52;4.83;;;2.83;;
5171;SDS011;2605;49.770;9.868;2024-01-06T02:41:17;3.27;;;2.33;;
5171;SDS011;2605;49.770;9.868;2024-01-06T02:43:43;2.90;;;2.60;;
5171;SDS011;2605;49.770;9.868;2024-01-06T02:46:08;4.60;;;2.27;;
5171;SDS011;2605;49.770;9.868;2024-01-06T02:48:34;3.37;;;2.03;;
5171;SDS011;2605;49.770;9.868;2024-01-06T02:50:59;3.43;;;2.13;;
5171;SDS011;2605;49.770;9.868;2024-01-06T02:53:25;11.77;;;3.13;;
5171;SDS011;2605;49.770;9.868;2024-01-06T02:55:50;5.23;;;2.77;;
5171;SDS011;2605;49.770;9.868;2024-01-06T02:58:15;3.97;;;2.37;;
5171;SDS011;2605;49.770;9.868;2024-01-06T03:00:41;3.40;;;2.40;;
5171;SDS011;2605;49.770;9.868;2024-01-06T03:03:07;3.53;;;2.73;;
5171;SDS011;2605;49.770;9.868;2024-01-06T03:05:32;5.13;;;2.40;;
5171;SDS011;2605;49.770;9.868;2024-01-06T03:08:01;3.23;;;2.43;;
5171;SDS011;2605;49.770;9.868;2024-01-06T03:10:26;2.70;;;2.37;;
5171;SDS011;2605;49.770;9.868;2024-01-06T03:12:52;1.77;;;1.47;;
5171;SDS011;2605;49.770;9.868;2024-01-06T03:15:17;4.73;;;1.50;;
5171;SDS011;2605;49.770;9.868;2024-01-06T03:17:43;1.57;;;1.47;;
5171;SDS011;2605;49.770;9.868;2024-01-06T03:20:11;5.83;;;2.47;;
5171;SDS011;2605;49.770;9.868;2024-01-06T03:22:37;1.87;;;1.77;;
5171;SDS011;2605;49.770;9.868;2024-01-06T03:25:03;3.20;;;2.00;;
5171;SDS011;2605;49.770;9.868;2024-01-06T03:27:29;2.70;;;2.17;;
5171;SDS011;2605;49.770;9.868;2024-01-06T03:29:54;4.00;;;1.93;;
5171;SDS011;2605;49.770;9.868;2024-01-06T03:32:21;9.50;;;3.07;;
5171;SDS011;2605;49.770;9.868;2024-01-06T03:34:47;5.50;;;2.37;;
5171;SDS011;2605;49.770;9.868;2024-01-06T03:37:12;8.83;;;2.40;;
5171;SDS011;2605;49.770;9.868;2024-01-06T03:39:38;2.03;;;1.60;;
5171;SDS011;2605;49.770;9.868;2024-01-06T03:42:03;2.03;;;1.80;;
5171;SDS011;2605;49.770;9.868;2024-01-06T03:44:29;5.30;;;2.20;;
5171;SDS011;2605;49.770;9.868;2024-01-06T03:46:58;6.83;;;2.10;;
5171;SDS011;2605;49.770;9.868;2024-01-06T03:49:24;6.20;;;2.20;;
5171;SDS011;2605;49.770;9.868;2024-01-06T03:51:50;3.23;;;2.07;;
5171;SDS011;2605;49.770;9.868;2024-01-06T03:54:15;2.50;;;1.63;;
5171;SDS011;2605;49.770;9.868;2024-01-06T03:56:43;2.30;;;1.50;;
5171;SDS011;2605;49.770;9.868;2024-01-06T03:59:09;1.50;;;1.40;;
5171;SDS011;2605;49.770;9.868;2024-01-06T04:01:34;3.53;;;2.40;;
5171;SDS011;2605;49.770;9.868;2024-01-06T04:04:03;5.13;;;2.20;;
5171;SDS011;2605;49.770;9.868;2024-01-06T04:06:32;2.60;;;1.63;;
5171;SDS011;2605;49.770;9.868;2024-01-06T04:08:57;3.53;;;1.63;;
5171;SDS011;2605;49.770;9.868;2024-01-06T04:11:23;2.07;;;1.83;;
5171;SDS011;2605;49.770;9.868;2024-01-06T04:13:49;7.20;;;2.53;;
5171;SDS011;2605;49.770;9.868;2024-01-06T04:16:14;3.87;;;1.83;;
5171;SDS011;2605;49.770;9.868;2024-01-06T04:18:40;2.83;;;2.10;;
5171;SDS011;2605;49.770;9.868;2024-01-06T04:21:06;2.67;;;2.10;;
5171;SDS011;2605;49.770;9.868;2024-01-06T04:23:31;7.33;;;2.37;;
5171;SDS011;2605;49.770;9.868;2024-01-06T04:25:57;1.87;;;1.43;;
5171;SDS011;2605;49.770;9.868;2024-01-06T04:28:22;1.97;;;1.87;;
5171;SDS011;2605;49.770;9.868;2024-01-06T04:30:48;5.37;;;2.17;;
5171;SDS011;2605;49.770;9.868;2024-01-06T04:33:14;6.07;;;2.27;;
5171;SDS011;2605;49.770;9.868;2024-01-06T04:35:39;6.03;;;2.53;;
5171;SDS011;2605;49.770;9.868;2024-01-06T04:38:05;2.57;;;1.80;;
5171;SDS011;2605;49.770;9.868;2024-01-06T04:40:30;3.07;;;1.90;;
5171;SDS011;2605;49.770;9.868;2024-01-06T04:42:56;3.47;;;2.00;;
5171;SDS011;2605;49.770;9.868;2024-01-06T04:45:21;4.73;;;2.43;;
5171;SDS011;2605;49.770;9.868;2024-01-06T04:47:49;2.37;;;1.77;;
5171;SDS011;2605;49.770;9.868;2024-01-06T04:50:14;4.23;;;2.20;;
5171;SDS011;2605;49.770;9.868;2024-01-06T04:52:40;7.33;;;2.20;;
5171;SDS011;2605;49.770;9.868;2024-01-06T04:55:06;7.47;;;2.57;;
5171;SDS011;2605;49.770;9.868;2024-01-06T04:57:31;3.20;;;2.10;;
5171;SDS011;2605;49.770;9.868;2024-01-06T04:59:57;1.57;;;1.47;;
5171;SDS011;2605;49.770;9.868;2024-01-06T05:02:23;2.20;;;1.67;;
5171;SDS011;2605;49.770;9.868;2024-01-06T05:04:48;1.87;;;1.27;;
5171;SDS011;2605;49.770;9.868;2024-01-06T05:07:14;5.83;;;2.20;;
5171;SDS011;2605;49.770;9.868;2024-01-06T05:09:39;5.73;;;2.87;;
5171;SDS011;2605;49.770;9.868;2024-01-06T05:12:05;3.83;;;2.10;;
5171;SDS011;2605;49.770;9.868;2024-01-06T05:14:30;6.00;;;2.07;;
5171;SDS011;2605;49.770;9.868;2024-01-06T05:16:56;7.10;;;2.03;;
5171;SDS011;2605;49.770;9.868;2024-01-06T05:19:21;6.17;;;2.60;;
5171;SDS011;2605;49.770;9.868;2024-01-06T05:21:47;2.70;;;2.00;;
5171;SDS011;2605;49.770;9.868;2024-01-06T05:24:13;3.67;;;2.00;;
5171;SDS011;2605;49.770;9.868;2024-01-06T05:26:38;2.80;;;2.47;;
5171;SDS011;2605;49.770;9.868;2024-01-06T05:29:05;5.07;;;2.17;;
5171;SDS011;2605;49.770;9.868;2024-01-06T05:31:30;3.53;;;1.83;;
5171;SDS011;2605;49.770;9.868;2024-01-06T05:33:56;3.70;;;2.10;;
5171;SDS011;2605;49.770;9.868;2024-01-06T05:36:21;3.30;;;2.47;;
5171;SDS011;2605;49.770;9.868;2024-01-06T05:38:47;2.60;;;2.40;;
5171;SDS011;2605;49.770;9.868;2024-01-06T05:41:12;6.93;;;1.60;;
5171;SDS011;2605;49.770;9.868;2024-01-06T05:43:38;4.03;;;2.50;;
5171;SDS011;2605;49.770;9.868;2024-01-06T05:46:03;2.33;;;1.87;;
5171;SDS011;2605;49.770;9.868;2024-01-06T05:48:29;2.87;;;1.80;;
5171;SDS011;2605;49.770;9.868;2024-01-06T05:50:55;1.93;;;1.47;;
5171;SDS011;2605;49.770;9.868;2024-01-06T05:53:20;4.23;;;1.60;;
5171;SDS011;2605;49.770;9.868;2024-01-06T05:55:46;23.87;;;2.60;;
5171;SDS011;2605;49.770;9.868;2024-01-06T05:58:12;3.53;;;1.73;;
5171;SDS011;2605;49.770;9.868;2024-01-06T06:00:37;3.23;;;2.63;;
5171;SDS011;2605;49.770;9.868;2024-01-06T06:03:03;6.47;;;3.10;;
5171;SDS011;2605;49.770;9.868;2024-01-06T06:05:29;5.10;;;2.67;;
5171;SDS011;2605;49.770;9.868;2024-01-06T06:07:55;8.23;;;3.30;;
5171;SDS011;2605;49.770;9.868;2024-01-06T06:10:20;4.60;;;3.63;;
5171;SDS011;2605;49.770;9.868;2024-01-06T06:12:46;4.07;;;2.73;;
5171;SDS011;2605;49.770;9.868;2024-01-06T06:15:12;4.23;;;2.83;;
5171;SDS011;2605;49.770;9.868;2024-01-06T06:17:38;4.30;;;2.07;;
5171;SDS011;2605;49.770;9.868;2024-01-06T06:20:04;2.13;;;1.90;;
5171;SDS011;2605;49.770;9.868;2024-01-06T06:22:31;4.07;;;2.20;;
5171;SDS011;2605;49.770;9.868;2024-01-06T06:24:57;5.50;;;3.00;;
5171;SDS011;2605;49.770;9.868;2024-01-06T06:27:23;3.70;;;3.37;;
5171;SDS011;2605;49.770;9.868;2024-01-06T06:29:49;2.40;;;2.20;;
5171;SDS011;2605;49.770;9.868;2024-01-06T06:32:17;2.97;;;2.67;;
5171;SDS011;2605;49.770;9.868;2024-01-06T06:34:43;3.90;;;2.80;;
5171;SDS011;2605;49.770;9.868;2024-01-06T06:37:08;4.40;;;2.23;;
5171;SDS011;2605;49.770;9.868;2024-01-06T06:39:34;6.73;;;2.70;;
5171;SDS011;2605;49.770;9.868;2024-01-06T06:42:00;4.50;;;4.10;;
5171;SDS011;2605;49.770;9.868;2024-01-06T06:44:26;8.00;;;4.07;;
5171;SDS011;2605;49.770;9.868;2024-01-06T06:46:52;4.27;;;3.30;;
5171;SDS011;2605;49.770;9.868;2024-01-06T06:49:17;5.87;;;3.30;;
5171;SDS011;2605;49.770;9.868;2024-01-06T06:51:43;11.83;;;4.03;;
5171;SDS011;2605;49.770;9.868;2024-01-06T06:54:12;4.70;;;3.50;;
5171;SDS011;2605;49.770;9.868;2024-01-06T06:56:39;4.77;;;3.43;;
5171;SDS011;2605;49.770;9.868;2024-01-06T06:59:05;7.40;;;3.90;;
5171;SDS011;2605;49.770;9.868;2024-01-06T07:01:30;3.97;;;3.50;;
5171;SDS011;2605;49.770;9.868;2024-01-06T07:03:56;4.60;;;4.00;;
5171;SDS011;2605;49.770;9.868;2024-01-06T07:06:21;5.40;;;4.00;;
5171;SDS011;2605;49.770;9.868;2024-01-06T07:08:47;7.40;;;4.27;;
5171;SDS011;2605;49.770;9.868;2024-01-06T07:11:12;3.80;;;3.50;;
5171;SDS011;2605;49.770;9.868;2024-01-06T07:13:40;6.73;;;4.37;;
5171;SDS011;2605;49.770;9.868;2024-01-06T07:16:05;9.00;;;4.73;;
5171;SDS011;2605;49.770;9.868;2024-01-06T07:18:31;10.60;;;4.53;;
5171;SDS011;2605;49.770;9.868;2024-01-06T07:20:57;9.23;;;4.17;;
5171;SDS011;2605;49.770;9.868;2024-01-06T07:23:23;8.33;;;4.47;;
5171;SDS011;2605;49.770;9.868;2024-01-06T07:25:48;12.90;;;4.57;;
5171;SDS011;2605;49.770;9.868;2024-01-06T07:28:14;7.00;;;3.37;;
5171;SDS011;2605;49.770;9.868;2024-01-06T07:30:39;6.47;;;3.60;;
5171;SDS011;2605;49.770;9.868;2024-01-06T07:33:05;3.17;;;2.77;;
5171;SDS011;2605;49.770;9.868;2024-01-06T07:35:36;4.67;;;4.03;;
5171;SDS011;2605;49.770;9.868;2024-01-06T07:38:02;4.93;;;4.00;;
5171;SDS011;2605;49.770;9.868;2024-01-06T07:40:27;3.60;;;3.30;;
5171;SDS011;2605;49.770;9.868;2024-01-06T07:42:53;6.37;;;3.80;;
5171;SDS011;2605;49.770;9.868;2024-01-06T07:45:18;4.10;;;3.40;;
5171;SDS011;2605;49.770;9.868;2024-01-06T07:47:44;6.77;;;3.80;;
5171;SDS011;2605;49.770;9.868;2024-01-06T07:50:09;8.53;;;3.87;;
5171;SDS011;2605;49.770;9.868;2024-01-06T07:52:35;5.57;;;3.50;;
5171;SDS011;2605;49.770;9.868;2024-01-06T07:55:00;3.97;;;3.40;;
5171;SDS011;2605;49.770;9.868;2024-01-06T07:57:26;4.17;;;3.47;;
5171;SDS011;2605;49.770;9.868;2024-01-06T07:59:51;4.10;;;3.50;;
5171;SDS011;2605;49.770;9.868;2024-01-06T08:02:17;5.20;;;3.70;;
5171;SDS011;2605;49.770;9.868;2024-01-06T08:04:43;7.40;;;3.90;;
5171;SDS011;2605;49.770;9.868;2024-01-06T08:07:09;7.37;;;2.30;;
5171;SDS011;2605;49.770;9.868;2024-01-06T08:09:35;5.87;;;3.57;;
5171;SDS011;2605;49.770;9.868;2024-01-06T08:12:01;5.07;;;3.87;;
5171;SDS011;2605;49.770;9.868;2024-01-06T08:14:28;6.53;;;4.80;;
5171;SDS011;2605;49.770;9.868;2024-01-06T08:16:53;6.60;;;3.57;;
5171;SDS011;2605;49.770;9.868;2024-01-06T08:19:19;6.33;;;4.33;;
5171;SDS011;2605;49.770;9.868;2024-01-06T08:21:45;6.93;;;4.53;;
5171;SDS011;2605;49.770;9.868;2024-01-06T08:24:10;8.43;;;4.70;;
5171;SDS011;2605;49.770;9.868;2024-01-06T08:26:36;6.57;;;4.30;;
5171;SDS011;2605;49.770;9.868;2024-01-06T08:29:01;4.10;;;3.50;;
5171;SDS011;2605;49.770;9.868;2024-01-06T08:31:27;5.70;;;3.23;;
5171;SDS011;2605;49.770;9.868;2024-01-06T08:33:52;7.93;;;4.87;;
5171;SDS011;2605;49.770;9.868;2024-01-06T08:36:18;11.53;;;4.10;;
5171;SDS011;2605;49.770;9.868;2024-01-06T08:38:43;8.73;;;4.03;;
5171;SDS011;2605;49.770;9.868;2024-01-06T08:41:09;5.60;;;4.00;;
5171;SDS011;2605;49.770;9.868;2024-01-06T08:43:35;6.07;;;3.50;;
5171;SDS011;2605;49.770;9.868;2024-01-06T08:46:00;1.97;;;1.80;;
5171;SDS011;2605;49.770;9.868;2024-01-06T08:48:27;5.13;;;3.80;;
5171;SDS011;2605;49.770;9.868;2024-01-06T08:50:52;5.50;;;2.87;;
5171;SDS011;2605;49.770;9.868;2024-01-06T08:53:18;5.37;;;3.83;;
5171;SDS011;2605;49.770;9.868;2024-01-06T08:55:43;8.53;;;4.33;;
5171;SDS011;2605;49.770;9.868;2024-01-06T08:58:11;4.17;;;3.43;;
5171;SDS011;2605;49.770;9.868;2024-01-06T09:00:36;7.43;;;3.83;;
5171;SDS011;2605;49.770;9.868;2024-01-06T09:03:05;2.70;;;2.50;;
5171;SDS011;2605;49.770;9.868;2024-01-06T09:05:31;4.57;;;2.93;;
5171;SDS011;2605;49.770;9.868;2024-01-06T09:07:58;4.27;;;3.37;;
5171;SDS011;2605;49.770;9.868;2024-01-06T09:10:24;5.33;;;3.80;;
5171;SDS011;2605;49.770;9.868;2024-01-06T09:12:49;7.27;;;4.30;;
5171;SDS011;2605;49.770;9.868;2024-01-06T09:15:15;4.53;;;3.27;;
5171;SDS011;2605;49.770;9.868;2024-01-06T09:17:40;5.70;;;3.33;;
5171;SDS011;2605;49.770;9.868;2024-01-06T09:20:06;6.90;;;4.20;;
5171;SDS011;2605;49.770;9.868;2024-01-06T09:22:32;7.83;;;4.47;;
5171;SDS011;2605;49.770;9.868;2024-01-06T09:24:58;5.73;;;3.90;;
5171;SDS011;2605;49.770;9.868;2024-01-06T09:27:24;7.50;;;3.70;;
5171;SDS011;2605;49.770;9.868;2024-01-06T09:29:49;5.20;;;4.37;;
5171;SDS011;2605;49.770;9.868;2024-01-06T09:32:16;7.73;;;2.63;;
5171;SDS011;2605;49.770;9.868;2024-01-06T09:34:41;5.27;;;4.33;;
5171;SDS011;2605;49.770;9.868;2024-01-06T09:37:07;9.53;;;5.63;;
5171;SDS011;2605;49.770;9.868;2024-01-06T09:39:32;8.23;;;4.80;;
5171;SDS011;2605;49.770;9.868;2024-01-06T09:41:58;8.43;;;4.97;;
5171;SDS011;2605;49.770;9.868;2024-01-06T09:44:23;7.80;;;4.70;;
5171;SDS011;2605;49.770;9.868;2024-01-06T09:46:49;3.60;;;3.27;;
5171;SDS011;2605;49.770;9.868;2024-01-06T09:49:16;6.87;;;4.70;;
5171;SDS011;2605;49.770;9.868;2024-01-06T09:51:47;6.10;;;4.00;;
5171;SDS011;2605;49.770;9.868;2024-01-06T09:54:16;7.00;;;5.03;;
5171;SDS011;2605;49.770;9.868;2024-01-06T09:56:47;5.57;;;3.17;;
5171;SDS011;2605;49.770;9.868;2024-01-06T09:59:14;4.33;;;3.90;;
5171;SDS011;2605;49.770;9.868;2024-01-06T10:01:43;4.50;;;4.07;;
5171;SDS011;2605;49.770;9.868;2024-01-06T10:04:10;14.77;;;4.10;;
5171;SDS011;2605;49.770;9.868;2024-01-06T10:06:35;15.87;;;5.07;;
5171;SDS011;2605;49.770;9.868;2024-01-06T10:09:01;5.57;;;3.87;;
5171;SDS011;2605;49.770;9.868;2024-01-06T10:11:30;5.13;;;4.53;;
5171;SDS011;2605;49.770;9.868;2024-01-06T10:13:55;7.00;;;4.37;;
5171;SDS011;2605;49.770;9.868;2024-01-06T10:16:21;7.00;;;3.03;;
5171;SDS011;2605;49.770;9.868;2024-01-06T10:18:47;3.00;;;2.10;;
5171;SDS011;2605;49.770;9.868;2024-01-06T10:21:13;2.93;;;2.30;;
5171;SDS011;2605;49.770;9.868;2024-01-06T10:23:42;3.57;;;2.63;;
5171;SDS011;2605;49.770;9.868;2024-01-06T10:26:08;2.40;;;2.20;;
5171;SDS011;2605;49.770;9.868;2024-01-06T10:28:37;3.83;;;3.53;;
5171;SDS011;2605;49.770;9.868;2024-01-06T10:31:03;7.37;;;4.63;;
5171;SDS011;2605;49.770;9.868;2024-01-06T10:33:28;6.53;;;4.33;;
5171;SDS011;2605;49.770;9.868;2024-01-06T10:35:57;5.53;;;4.20;;
5171;SDS011;2605;49.770;9.868;2024-01-06T10:38:25;2.87;;;2.63;;
5171;SDS011;2605;49.770;9.868;2024-01-06T10:41:00;2.87;;;2.40;;
5171;SDS011;2605;49.770;9.868;2024-01-06T10:43:36;12.33;;;4.43;;
5171;SDS011;2605;49.770;9.868;2024-01-06T10:46:08;5.73;;;2.60;;
5171;SDS011;2605;49.770;9.868;2024-01-06T10:48:35;3.87;;;3.50;;
5171;SDS011;2605;49.770;9.868;2024-01-06T10:51:08;5.90;;;4.00;;
5171;SDS011;2605;49.770;9.868;2024-01-06T10:53:40;12.57;;;5.50;;
5171;SDS011;2605;49.770;9.868;2024-01-06T10:56:08;4.60;;;3.67;;
5171;SDS011;2605;49.770;9.868;2024-01-06T10:58:35;7.70;;;4.50;;
5171;SDS011;2605;49.770;9.868;2024-01-06T11:01:07;4.70;;;4.30;;
5171;SDS011;2605;49.770;9.868;2024-01-06T11:03:37;4.57;;;2.77;;
5171;SDS011;2605;49.770;9.868;2024-01-06T11:06:04;5.17;;;3.00;;
5171;SDS011;2605;49.770;9.868;2024-01-06T11:08:31;2.93;;;2.73;;
5171;SDS011;2605;49.770;9.868;2024-01-06T11:11:01;4.77;;;2.83;;
5171;SDS011;2605;49.770;9.868;2024-01-06T11:13:27;6.73;;;3.13;;
5171;SDS011;2605;49.770;9.868;2024-01-06T11:15:53;2.50;;;2.00;;
5171;SDS011;2605;49.770;9.868;2024-01-06T11:18:32;4.23;;;3.90;;
5171;SDS011;2605;49.770;9.868;2024-01-06T11:23:42;6.17;;;3.70;;
5171;SDS011;2605;49.770;9.868;2024-01-06T11:26:08;2.40;;;2.20;;
5171;SDS011;2605;49.770;9.868;2024-01-06T11:28:43;3.07;;;2.87;;
5171;SDS011;2605;49.770;9.868;2024-01-06T11:31:10;6.97;;;2.73;;
5171;SDS011;2605;49.770;9.868;2024-01-06T11:33:45;6.20;;;3.83;;
5171;SDS011;2605;49.770;9.868;2024-01-06T11:36:15;3.77;;;3.17;;
5171;SDS011;2605;49.770;9.868;2024-01-06T11:38:40;10.37;;;3.53;;
5171;SDS011;2605;49.770;9.868;2024-01-06T11:41:13;4.33;;;3.30;;
5171;SDS011;2605;49.770;9.868;2024-01-06T11:44:17;13.73;;;3.17;;
5171;SDS011;2605;49.770;9.868;2024-01-06T11:46:45;8.10;;;3.13;;
5171;SDS011;2605;49.770;9.868;2024-01-06T11:49:12;7.90;;;3.53;;
5171;SDS011;2605;49.770;9.868;2024-01-06T11:51:40;6.57;;;3.07;;
5171;SDS011;2605;49.770;9.868;2024-01-06T11:54:05;8.40;;;3.57;;
5171;SDS011;2605;49.770;9.868;2024-01-06T11:56:31;4.60;;;3.13;;
5171;SDS011;2605;49.770;9.868;2024-01-06T11:58:57;3.77;;;3.47;;
5171;SDS011;2605;49.770;9.868;2024-01-06T12:01:22;5.90;;;4.63;;
5171;SDS011;2605;49.770;9.868;2024-01-06T12:03:53;6.70;;;4.37;;
5171;SDS011;2605;49.770;9.868;2024-01-06T12:06:22;3.93;;;3.63;;
5171;SDS011;2605;49.770;9.868;2024-01-06T12:08:48;3.80;;;3.37;;
5171;SDS011;2605;49.770;9.868;2024-01-06T12:11:16;5.57;;;3.60;;
5171;SDS011;2605;49.770;9.868;2024-01-06T12:13:43;4.00;;;3.60;;
5171;SDS011;2605;49.770;9.868;2024-01-06T12:16:09;5.23;;;3.87;;
5171;SDS011;2605;49.770;9.868;2024-01-06T12:18:35;6.87;;;3.33;;
5171;SDS011;2605;49.770;9.868;2024-01-06T12:21:01;7.07;;;3.57;;
5171;SDS011;2605;49.770;9.868;2024-01-06T12:23:27;4.23;;;3.77;;
5171;SDS011;2605;49.770;9.868;2024-01-06T12:25:53;4.77;;;3.50;;
5171;SDS011;2605;49.770;9.868;2024-01-06T12:28:20;5.57;;;2.80;;
5171;SDS011;2605;49.770;9.868;2024-01-06T12:30:45;5.83;;;3.53;;
5171;SDS011;2605;49.770;9.868;2024-01-06T12:33:11;5.50;;;3.90;;
5171;SDS011;2605;49.770;9.868;2024-01-06T12:35:37;8.83;;;3.50;;
5171;SDS011;2605;49.770;9.868;2024-01-06T12:38:03;3.20;;;3.00;;
5171;SDS011;2605;49.770;9.868;2024-01-06T12:40:32;6.13;;;3.93;;
5171;SDS011;2605;49.770;9.868;2024-01-06T12:42:57;4.50;;;3.63;;
5171;SDS011;2605;49.770;9.868;2024-01-06T12:45:23;3.47;;;3.10;;
5171;SDS011;2605;49.770;9.868;2024-01-06T12:47:48;3.90;;;3.50;;
5171;SDS011;2605;49.770;9.868;2024-01-06T12:50:14;6.37;;;3.40;;
5171;SDS011;2605;49.770;9.868;2024-01-06T12:52:40;3.87;;;3.60;;
5171;SDS011;2605;49.770;9.868;2024-01-06T12:55:06;8.07;;;6.50;;
5171;SDS011;2605;49.770;9.868;2024-01-06T12:57:32;4.93;;;3.27;;
5171;SDS011;2605;49.770;9.868;2024-01-06T12:59:58;6.00;;;3.40;;
5171;SDS011;2605;49.770;9.868;2024-01-06T13:02:24;4.10;;;3.50;;
5171;SDS011;2605;49.770;9.868;2024-01-06T13:04:49;5.93;;;3.60;;
5171;SDS011;2605;49.770;9.868;2024-01-06T13:07:15;3.80;;;3.50;;
5171;SDS011;2605;49.770;9.868;2024-01-06T13:09:40;6.30;;;4.37;;
5171;SDS011;2605;49.770;9.868;2024-01-06T13:12:06;5.50;;;4.03;;
5171;SDS011;2605;49.770;9.868;2024-01-06T13:14:32;4.27;;;3.87;;
5171;SDS011;2605;49.770;9.868;2024-01-06T13:16:57;5.10;;;3.00;;
5171;SDS011;2605;49.770;9.868;2024-01-06T13:19:23;4.93;;;3.00;;
5171;SDS011;2605;49.770;9.868;2024-01-06T13:21:50;3.30;;;3.10;;
5171;SDS011;2605;49.770;9.868;2024-01-06T13:24:15;4.27;;;3.70;;
5171;SDS011;2605;49.770;9.868;2024-01-06T13:26:41;6.00;;;4.63;;
5171;SDS011;2605;49.770;9.868;2024-01-06T13:29:06;5.70;;;3.37;;
5171;SDS011;2605;49.770;9.868;2024-01-06T13:31:32;5.87;;;4.70;;
5171;SDS011;2605;49.770;9.868;2024-01-06T13:33:58;5.13;;;3.27;;
5171;SDS011;2605;49.770;9.868;2024-01-06T13:36:23;8.83;;;3.57;;
5171;SDS011;2605;49.770;9.868;2024-01-06T13:38:49;5.50;;;4.03;;
5171;SDS011;2605;49.770;9.868;2024-01-06T13:41:15;2.53;;;2.33;;
5171;SDS011;2605;49.770;9.868;2024-01-06T13:43:41;4.90;;;4.00;;
5171;SDS011;2605;49.770;9.868;2024-01-06T13:46:06;4.87;;;3.60;;
5171;SDS011;2605;49.770;9.868;2024-01-06T13:48:32;5.03;;;3.90;;
5171;SDS011;2605;49.770;9.868;2024-01-06T13:50:58;7.00;;;2.80;;
5171;SDS011;2605;49.770;9.868;2024-01-06T13:53:24;5.00;;;3.70;;
5171;SDS011;2605;49.770;9.868;2024-01-06T13:55:53;4.50;;;3.00;;
5171;SDS011;2605;49.770;9.868;2024-01-06T13:58:18;4.23;;;3.83;;
5171;SDS011;2605;49.770;9.868;2024-01-06T14:00:47;3.17;;;2.87;;
5171;SDS011;2605;49.770;9.868;2024-01-06T14:03:15;6.53;;;2.83;;
5171;SDS011;2605;49.770;9.868;2024-01-06T14:05:41;3.70;;;3.03;;
5171;SDS011;2605;49.770;9.868;2024-01-06T14:08:07;11.67;;;3.37;;
5171;SDS011;2605;49.770;9.868;2024-01-06T14:10:32;2.50;;;2.30;;
5171;SDS011;2605;49.770;9.868;2024-01-06T14:12:58;2.57;;;2.33;;
5171;SDS011;2605;49.770;9.868;2024-01-06T14:15:23;4.67;;;3.27;;
5171;SDS011;2605;49.770;9.868;2024-01-06T14:17:51;3.70;;;3.13;;
5171;SDS011;2605;49.770;9.868;2024-01-06T14:20:17;4.13;;;3.20;;
5171;SDS011;2605;49.770;9.868;2024-01-06T14:22:44;4.50;;;3.20;;
5171;SDS011;2605;49.770;9.868;2024-01-06T14:25:10;6.70;;;4.17;;
5171;SDS011;2605;49.770;9.868;2024-01-06T14:27:36;4.50;;;3.33;;
5171;SDS011;2605;49.770;9.868;2024-01-06T14:30:02;3.70;;;3.40;;
5171;SDS011;2605;49.770;9.868;2024-01-06T14:32:28;6.93;;;4.10;;
5171;SDS011;2605;49.770;9.868;2024-01-06T14:34:54;4.60;;;3.20;;
5171;SDS011;2605;49.770;9.868;2024-01-06T14:37:20;3.10;;;2.80;;
5171;SDS011;2605;49.770;9.868;2024-01-06T14:39:46;4.70;;;3.20;;
5171;SDS011;2605;49.770;9.868;2024-01-06T14:42:12;6.27;;;3.60;;
5171;SDS011;2605;49.770;9.868;2024-01-06T14:44:37;3.90;;;3.23;;
5171;SDS011;2605;49.770;9.868;2024-01-06T14:47:03;4.53;;;3.23;;
5171;SDS011;2605;49.770;9.868;2024-01-06T14:49:32;3.93;;;3.20;;
5171;SDS011;2605;49.770;9.868;2024-01-06T14:51:57;5.30;;;3.20;;
5171;SDS011;2605;49.770;9.868;2024-01-06T14:54:23;3.97;;;2.80;;
5171;SDS011;2605;49.770;9.868;2024-01-06T14:56:48;12.23;;;3.57;;
5171;SDS011;2605;49.770;9.868;2024-01-06T14:59:15;6.30;;;3.70;;
5171;SDS011;2605;49.770;9.868;2024-01-06T15:01:43;6.70;;;4.63;;
5171;SDS011;2605;49.770;9.868;2024-01-06T15:04:09;8.20;;;5.60;;
5171;SDS011;2605;49.770;9.868;2024-01-06T15:06:34;7.80;;;5.07;;
5171;SDS011;2605;49.770;9.868;2024-01-06T15:09:00;5.43;;;4.60;;
5171;SDS011;2605;49.770;9.868;2024-01-06T15:11:26;12.37;;;5.10;;